createdAt,value
2022-09-21T00:01:46.043Z,94.76
2022-09-21T00:04:16.167Z,94.85
2022-09-21T00:06:46.336Z,94.79
2022-09-21T00:09:15.563Z,94.76
2022-09-21T00:11:44.173Z,94.64
2022-09-21T00:14:14.427Z,94.68
2022-09-21T00:16:43.677Z,94.95
2022-09-21T00:19:12.855Z,94.96
2022-09-21T00:21:41.983Z,95.10
2022-09-21T00:24:11.903Z,95.22
2022-09-21T00:26:40.676Z,95.23
2022-09-21T00:29:11.481Z,95.15
2022-09-21T00:31:40.286Z,95.13
2022-09-21T00:34:09.455Z,95.56
2022-09-21T00:36:38.619Z,95.37
2022-09-21T00:39:07.276Z,95.61
2022-09-21T00:41:36.042Z,95.33
2022-09-21T00:44:31.043Z,95.92
2022-09-21T00:47:04.590Z,96.04
2022-09-21T00:49:34.808Z,96.08
2022-09-21T00:52:07.504Z,96.33
2022-09-21T00:54:41.539Z,96.30
2022-09-21T00:57:10.765Z,96.19
2022-09-21T00:59:42.103Z,96.71
2022-09-21T01:02:11.700Z,96.88
2022-09-21T01:04:41.130Z,96.56
2022-09-21T01:07:16.681Z,96.45
2022-09-21T01:09:50.124Z,96.54
2022-09-21T01:12:34.496Z,96.56
2022-09-21T01:15:19.626Z,96.76
2022-09-21T01:17:57.241Z,96.83
2022-09-21T01:20:59.156Z,96.89
2022-09-21T01:23:42.648Z,97.03
2022-09-21T01:26:22.566Z,97.32
2022-09-21T01:29:12.526Z,97.35
2022-09-21T01:31:46.863Z,97.32
2022-09-21T01:34:24.562Z,97.41
2022-09-21T01:36:57.432Z,97.28
2022-09-21T01:39:28.232Z,97.41
2022-09-21T01:41:57.653Z,97.59
2022-09-21T01:44:32.955Z,97.45
2022-09-21T01:47:03.702Z,97.49
2022-09-21T01:49:34.847Z,97.84
2022-09-21T01:52:13.849Z,97.97
2022-09-21T01:54:46.512Z,97.81
2022-09-21T01:57:23.434Z,97.96
2022-09-21T01:59:58.411Z,97.98
2022-09-21T02:02:38.982Z,97.89
2022-09-21T02:05:08.925Z,97.90
2022-09-21T02:07:39.562Z,97.91
2022-09-21T02:10:13.356Z,97.85
2022-09-21T02:12:42.273Z,98.04
2022-09-21T02:15:12.029Z,98.06
2022-09-21T02:17:51.483Z,98.09
2022-09-21T02:20:24.967Z,97.86
2022-09-21T02:23:06.032Z,98.47
2022-09-21T02:25:46.780Z,98.47
2022-09-21T02:28:26.987Z,98.54
2022-09-21T02:31:01.762Z,98.58
2022-09-21T02:33:38.855Z,98.94
2022-09-21T02:36:15.618Z,98.94
2022-09-21T02:38:51.578Z,99.07
2022-09-21T02:41:26.739Z,99.42
2022-09-21T02:44:02.960Z,99.56
2022-09-21T02:46:37.070Z,99.68
2022-09-21T02:49:10.359Z,99.56
2022-09-21T02:51:44.111Z,99.79
2022-09-21T02:54:17.556Z,99.82
2022-09-21T02:56:50.937Z,99.92
2022-09-21T02:59:23.467Z,99.94
2022-09-21T03:01:53.099Z,99.93
2022-09-21T03:04:22.524Z,100.00
2022-09-21T03:06:52.047Z,100.00
2022-09-21T03:09:23.773Z,100.00
2022-09-21T03:11:52.752Z,100.00
2022-09-21T03:14:22.443Z,100.00
2022-09-21T03:16:51.202Z,100.00
2022-09-21T03:19:19.892Z,100.00
2022-09-21T03:21:48.616Z,100.00
2022-09-21T03:24:37.455Z,100.00
2022-09-21T03:27:08.058Z,100.00
2022-09-21T03:29:35.818Z,100.00
2022-09-21T03:32:06.981Z,100.00
2022-09-21T03:34:35.700Z,100.00
2022-09-21T03:37:06.358Z,100.00
2022-09-21T03:39:36.164Z,100.00
2022-09-21T03:42:05.118Z,100.00
2022-09-21T03:44:33.912Z,100.00
2022-09-21T03:47:02.635Z,100.00
2022-09-21T03:49:31.885Z,100.00
2022-09-21T03:52:00.623Z,100.00
2022-09-21T03:54:29.661Z,100.00
2022-09-21T03:56:58.313Z,100.00
2022-09-21T03:59:27.173Z,100.00
2022-09-21T04:01:55.845Z,100.00
2022-09-21T04:04:26.205Z,100.00
2022-09-21T04:06:54.826Z,100.00
2022-09-21T04:09:23.493Z,100.00
2022-09-21T04:11:53.572Z,100.00
2022-09-21T04:14:22.732Z,100.00
2022-09-21T04:16:51.678Z,100.00
2022-09-21T04:19:21.759Z,100.00
2022-09-21T04:21:51.089Z,100.00
2022-09-21T04:24:19.951Z,100.00
2022-09-21T04:26:48.964Z,100.00
2022-09-21T04:29:17.774Z,100.00
2022-09-21T04:31:46.371Z,100.00
2022-09-21T04:34:15.038Z,100.00
2022-09-21T04:36:47.091Z,100.00
2022-09-21T04:39:15.857Z,100.00
2022-09-21T04:41:44.924Z,100.00
2022-09-21T04:44:13.672Z,100.00
2022-09-21T04:46:42.377Z,100.00
2022-09-21T04:49:12.560Z,100.00
2022-09-21T04:51:41.246Z,100.00
2022-09-21T04:54:10.186Z,100.00
2022-09-21T04:56:40.389Z,100.00
2022-09-21T04:59:09.266Z,100.00
2022-09-21T05:01:38.049Z,100.00
2022-09-21T05:04:06.947Z,100.00
2022-09-21T05:06:35.694Z,100.00
2022-09-21T05:09:25.194Z,100.00
2022-09-21T05:11:54.555Z,100.00
2022-09-21T05:14:23.730Z,100.00
2022-09-21T05:16:52.388Z,100.00
2022-09-21T05:19:22.345Z,100.00
2022-09-21T05:21:51.129Z,100.00
2022-09-21T05:24:20.041Z,100.00
2022-09-21T05:26:48.733Z,100.00
2022-09-21T05:29:18.612Z,100.00
2022-09-21T05:31:53.968Z,100.00
2022-09-21T05:34:36.660Z,100.00
2022-09-21T05:37:12.794Z,100.00
2022-09-21T05:39:42.845Z,100.00
2022-09-21T05:42:13.242Z,100.00
2022-09-21T05:44:42.862Z,100.00
2022-09-21T05:47:24.655Z,100.00
2022-09-21T05:50:05.335Z,100.00
2022-09-21T05:52:47.215Z,100.00
2022-09-21T05:55:31.717Z,100.00
2022-09-21T05:58:10.141Z,100.00
2022-09-21T06:00:45.381Z,100.00
2022-09-21T06:03:31.911Z,100.00
2022-09-21T06:06:00.665Z,100.00
2022-09-21T06:08:29.652Z,100.00
2022-09-21T06:10:58.549Z,100.00
2022-09-21T06:13:27.764Z,100.00
2022-09-21T06:15:57.963Z,100.00
2022-09-21T06:18:26.044Z,100.00
2022-09-21T06:20:54.638Z,100.00
2022-09-21T06:23:23.549Z,100.00
2022-09-21T06:25:57.539Z,100.00
2022-09-21T06:28:27.850Z,100.00
2022-09-21T06:30:57.909Z,100.00
2022-09-21T06:33:26.665Z,100.00
2022-09-21T06:35:56.873Z,100.00
2022-09-21T06:38:27.757Z,100.00
2022-09-21T06:41:00.864Z,100.00
2022-09-21T06:43:29.940Z,100.00
2022-09-21T06:46:00.401Z,100.00
2022-09-21T06:48:30.873Z,100.00
2022-09-21T06:50:59.280Z,100.00
2022-09-21T06:53:29.084Z,100.00
2022-09-21T06:56:03.888Z,100.00
2022-09-21T06:58:35.417Z,100.00
2022-09-21T07:01:10.260Z,100.00
2022-09-21T07:03:40.829Z,100.00
2022-09-21T07:06:11.178Z,100.00
2022-09-21T07:11:30.974Z,100.00
2022-09-21T07:14:00.066Z,100.00
2022-09-21T07:16:32.879Z,100.00
2022-09-21T07:19:10.299Z,100.00
2022-09-21T07:21:40.146Z,100.00
2022-09-21T07:24:12.204Z,100.00
2022-09-21T07:26:41.428Z,100.00
2022-09-21T07:29:10.499Z,100.00
2022-09-21T07:31:39.187Z,100.00
2022-09-21T07:34:08.025Z,100.00
2022-09-21T07:36:39.795Z,100.00
2022-09-21T07:39:10.501Z,100.00
2022-09-21T07:41:39.224Z,100.00
2022-09-21T07:44:08.286Z,100.00
2022-09-21T07:46:36.968Z,100.00
2022-09-21T07:49:05.874Z,100.00
2022-09-21T07:51:36.021Z,100.00
2022-09-21T07:54:05.071Z,100.00
2022-09-21T07:56:33.717Z,100.00
2022-09-21T07:59:08.549Z,100.00
2022-09-21T08:01:39.102Z,100.00
2022-09-21T08:04:10.415Z,100.00
2022-09-21T08:06:40.290Z,100.00
2022-09-21T08:09:09.183Z,100.00
2022-09-21T08:11:37.752Z,100.00
2022-09-21T08:14:07.719Z,100.00
2022-09-21T08:16:38.804Z,100.00
2022-09-21T08:19:08.187Z,100.00
2022-09-21T08:21:36.975Z,100.00
2022-09-21T08:24:06.860Z,100.00
2022-09-21T08:26:35.920Z,100.00
2022-09-21T08:29:06.046Z,100.00
2022-09-21T08:31:35.237Z,100.00
2022-09-21T08:34:03.879Z,100.00
2022-09-21T08:36:33.855Z,100.00
2022-09-21T08:39:02.799Z,100.00
2022-09-21T08:41:57.530Z,100.00
2022-09-21T08:44:33.032Z,100.00
2022-09-21T08:47:09.978Z,100.00
2022-09-21T08:49:41.872Z,100.00
2022-09-21T08:52:16.503Z,100.00
2022-09-21T08:54:52.228Z,100.00
2022-09-21T08:57:22.993Z,100.00
2022-09-21T08:59:52.803Z,100.00
2022-09-21T09:02:44.507Z,100.00
2022-09-21T09:05:32.272Z,100.00
2022-09-21T09:08:18.925Z,100.00
2022-09-21T09:11:01.463Z,100.00
2022-09-21T09:13:46.633Z,100.00
2022-09-21T09:16:23.158Z,100.00
2022-09-21T09:18:55.450Z,100.00
2022-09-21T09:21:32.068Z,100.00
2022-09-21T09:24:08.757Z,100.00
2022-09-21T09:26:42.507Z,100.00
2022-09-21T09:29:22.763Z,100.00
2022-09-21T09:31:55.442Z,100.00
2022-09-21T09:34:29.286Z,100.00
2022-09-21T09:37:00.210Z,100.00
2022-09-21T09:39:30.630Z,100.00
2022-09-21T09:42:14.030Z,100.00
2022-09-21T09:45:17.653Z,100.00
2022-09-21T09:47:58.995Z,100.00
2022-09-21T09:50:29.794Z,100.00
2022-09-21T09:53:04.769Z,100.00
2022-09-21T09:55:39.317Z,100.00
2022-09-21T09:58:17.724Z,100.00
2022-09-21T10:00:53.208Z,100.00
2022-09-21T10:03:23.782Z,100.00
2022-09-21T10:05:51.594Z,100.00
2022-09-21T10:08:31.165Z,100.00
2022-09-21T10:11:00.066Z,100.00
2022-09-21T10:13:31.295Z,100.00
2022-09-21T10:16:02.678Z,100.00
2022-09-21T10:18:37.964Z,100.00
2022-09-21T10:21:09.002Z,100.00
2022-09-21T10:23:38.762Z,100.00
2022-09-21T10:26:10.287Z,100.00
2022-09-21T10:28:56.471Z,100.00
2022-09-21T10:31:26.409Z,100.00
2022-09-21T10:34:06.411Z,100.00
2022-09-21T10:36:38.181Z,100.00
2022-09-21T10:39:28.207Z,100.00
2022-09-21T10:42:02.518Z,100.00
2022-09-21T10:44:38.821Z,100.00
2022-09-21T10:47:19.004Z,100.00
2022-09-21T10:49:49.785Z,100.00
2022-09-21T10:52:20.344Z,100.00
2022-09-21T10:54:51.460Z,100.00
2022-09-21T10:57:22.966Z,100.00
2022-09-21T10:59:51.983Z,100.00
2022-09-21T11:02:38.507Z,100.00
2022-09-21T11:05:19.978Z,100.00
2022-09-21T11:07:57.048Z,100.00
2022-09-21T11:10:34.669Z,100.00
2022-09-21T11:13:23.562Z,99.96
2022-09-21T11:15:59.360Z,99.84
2022-09-21T11:18:40.234Z,100.00
2022-09-21T11:21:19.845Z,100.00
2022-09-21T11:23:57.432Z,100.00
2022-09-21T11:26:30.453Z,99.87
2022-09-21T11:29:08.089Z,99.18
2022-09-21T11:31:50.113Z,98.14
2022-09-21T11:34:37.272Z,97.71
2022-09-21T11:37:18.495Z,98.02
2022-09-21T11:40:02.525Z,97.71
2022-09-21T11:42:45.136Z,97.42
2022-09-21T11:45:28.894Z,97.65
2022-09-21T11:48:12.632Z,96.47
2022-09-21T11:50:52.476Z,96.14
2022-09-21T11:53:36.659Z,96.12
2022-09-21T11:56:21.317Z,95.45
2022-09-21T11:59:00.096Z,95.73
2022-09-21T12:01:44.774Z,95.56
2022-09-21T12:04:30.011Z,94.67
2022-09-21T12:07:16.441Z,94.19
2022-09-21T12:10:18.963Z,93.08
2022-09-21T12:12:54.204Z,92.01
2022-09-21T12:15:29.730Z,92.07
2022-09-21T12:18:08.781Z,92.47
2022-09-21T12:20:48.475Z,92.00
2022-09-21T12:23:22.423Z,91.45
2022-09-21T12:25:56.725Z,91.72
2022-09-21T12:28:31.825Z,91.40
2022-09-21T12:31:05.457Z,91.07
2022-09-21T12:33:39.735Z,92.17
2022-09-21T12:36:16.322Z,91.55
2022-09-21T12:38:52.875Z,91.21
2022-09-21T12:41:33.705Z,92.91
2022-09-21T12:44:12.111Z,91.42
2022-09-21T12:46:47.099Z,89.56
2022-09-21T12:49:20.797Z,88.76
2022-09-21T12:51:54.887Z,89.29
2022-09-21T12:54:37.456Z,89.35
2022-09-21T12:57:42.697Z,88.46
2022-09-21T13:00:13.711Z,88.65
2022-09-21T13:02:50.612Z,88.77
2022-09-21T13:05:33.489Z,88.87
2022-09-21T13:08:11.671Z,89.33
2022-09-21T13:10:49.159Z,89.53
2022-09-21T13:13:33.512Z,90.27
2022-09-21T13:16:03.991Z,90.55
2022-09-21T13:18:36.751Z,91.69
2022-09-21T13:21:21.381Z,91.42
2022-09-21T13:23:56.392Z,90.88
2022-09-21T13:26:35.554Z,90.74
2022-09-21T13:29:29.576Z,91.55
2022-09-21T13:32:01.371Z,91.58
2022-09-21T13:34:35.888Z,91.95
2022-09-21T13:37:30.989Z,91.63
2022-09-21T13:40:37.577Z,90.67
2022-09-21T13:43:46.650Z,89.92
2022-09-21T13:46:48.240Z,89.48
2022-09-21T13:49:26.400Z,89.50
2022-09-21T13:52:00.101Z,89.39
2022-09-21T13:54:32.985Z,89.74
2022-09-21T13:57:09.144Z,89.93
2022-09-21T13:59:40.093Z,90.36
2022-09-21T14:02:31.948Z,89.14
2022-09-21T14:05:09.510Z,88.73
2022-09-21T14:10:20.620Z,86.67
2022-09-21T14:12:50.856Z,85.87
2022-09-21T14:15:39.902Z,86.45
2022-09-21T14:18:46.400Z,86.49
2022-09-21T14:21:17.930Z,86.45
2022-09-21T14:24:18.987Z,86.94
2022-09-21T14:26:52.708Z,87.39
2022-09-21T14:29:27.236Z,86.64
2022-09-21T14:31:59.770Z,87.06
2022-09-21T14:34:36.389Z,85.51
2022-09-21T14:37:12.675Z,85.72
2022-09-21T14:39:44.887Z,85.17
2022-09-21T14:42:18.641Z,85.15
2022-09-21T14:44:51.253Z,85.15
2022-09-21T14:47:34.498Z,84.45
2022-09-21T14:50:20.159Z,84.40
2022-09-21T14:53:13.942Z,84.49
2022-09-21T14:55:56.097Z,84.71
2022-09-21T14:58:34.811Z,84.65
2022-09-21T15:01:35.353Z,84.49
2022-09-21T15:04:16.041Z,84.28
2022-09-21T15:07:13.978Z,84.84
2022-09-21T15:10:31.647Z,84.75
2022-09-21T15:13:11.621Z,84.80
2022-09-21T15:15:51.268Z,83.83
2022-09-21T15:18:22.350Z,84.20
2022-09-21T15:21:02.926Z,84.11
2022-09-21T15:23:38.625Z,84.15
2022-09-21T15:26:18.539Z,83.95
2022-09-21T15:29:09.827Z,84.25
2022-09-21T15:31:41.251Z,84.12
2022-09-21T15:34:13.487Z,84.48
2022-09-21T15:36:43.907Z,84.76
2022-09-21T15:39:24.368Z,84.67
2022-09-21T15:42:02.560Z,84.55
2022-09-21T15:44:36.220Z,84.63
2022-09-21T15:47:08.693Z,84.29
2022-09-21T15:49:41.345Z,84.48
2022-09-21T15:52:15.927Z,84.58
2022-09-21T15:54:50.251Z,84.40
2022-09-21T15:57:34.636Z,84.62
2022-09-21T16:00:17.975Z,84.85
2022-09-21T16:03:03.696Z,84.87
2022-09-21T16:05:41.129Z,85.21
2022-09-21T16:08:29.390Z,85.48
2022-09-21T16:11:19.281Z,85.30
2022-09-21T16:14:15.110Z,84.96
2022-09-21T16:17:06.189Z,85.44
2022-09-21T16:19:42.674Z,85.92
2022-09-21T16:22:14.395Z,85.89
2022-09-21T16:24:49.744Z,85.60
2022-09-21T16:27:20.642Z,85.89
2022-09-21T16:29:51.050Z,86.38
2022-09-21T16:32:23.447Z,86.40
2022-09-21T16:34:53.618Z,86.66
2022-09-21T16:37:28.156Z,86.39
2022-09-21T16:39:58.471Z,86.36
2022-09-21T16:42:30.670Z,86.43
2022-09-21T16:45:00.257Z,86.50
2022-09-21T16:47:29.507Z,86.70
2022-09-21T16:50:00.902Z,86.92
2022-09-21T16:52:30.632Z,87.20
2022-09-21T16:54:59.585Z,87.12
2022-09-21T16:57:28.412Z,87.18
2022-09-21T16:59:57.452Z,87.51
2022-09-21T17:02:26.145Z,87.48
2022-09-21T17:04:54.901Z,87.58
2022-09-21T17:07:23.976Z,87.48
2022-09-21T17:09:52.867Z,87.21
2022-09-21T17:12:23.326Z,87.57
2022-09-21T17:14:51.761Z,87.59
2022-09-21T17:17:22.973Z,87.84
2022-09-21T17:19:53.771Z,88.05
2022-09-21T17:22:24.834Z,88.71
2022-09-21T17:24:54.292Z,88.93
2022-09-21T17:27:26.025Z,89.17
2022-09-21T17:29:55.848Z,89.72
2022-09-21T17:32:24.958Z,89.96
2022-09-21T17:34:58.441Z,90.28
2022-09-21T17:37:27.488Z,90.07
2022-09-21T17:39:56.489Z,90.40
2022-09-21T17:42:25.551Z,90.58
2022-09-21T17:45:12.214Z,90.77
2022-09-21T17:47:42.390Z,90.66
2022-09-21T17:50:25.564Z,90.89
2022-09-21T17:53:14.333Z,90.85
2022-09-21T17:55:47.952Z,91.09
2022-09-21T17:58:41.616Z,91.14
2022-09-21T18:01:27.460Z,91.47
2022-09-21T18:03:58.870Z,91.19
2022-09-21T18:06:28.673Z,91.38
2022-09-21T18:08:59.037Z,91.46
2022-09-21T18:11:50.741Z,91.44
2022-09-21T18:14:31.811Z,91.80
2022-09-21T18:17:12.493Z,91.98
2022-09-21T18:19:46.663Z,92.27
2022-09-21T18:22:23.547Z,92.62
2022-09-21T18:24:55.208Z,92.36
2022-09-21T18:27:29.639Z,92.93
2022-09-21T18:29:59.729Z,93.13
2022-09-21T18:32:49.194Z,93.31
2022-09-21T18:35:48.290Z,93.17
2022-09-21T18:38:25.715Z,93.53
2022-09-21T18:41:19.747Z,93.56
2022-09-21T18:44:11.532Z,93.76
2022-09-21T18:46:50.422Z,94.18
2022-09-21T18:49:38.273Z,94.30
2022-09-21T18:52:24.664Z,94.61
2022-09-21T18:54:53.855Z,94.40
2022-09-21T18:57:25.977Z,94.48
2022-09-21T18:59:58.444Z,94.68
2022-09-21T19:02:28.667Z,94.89
2022-09-21T19:04:58.544Z,94.79
2022-09-21T19:07:30.869Z,95.03
2022-09-21T19:10:12.252Z,95.21
2022-09-21T19:12:54.256Z,95.17
2022-09-21T19:15:48.642Z,95.22
2022-09-21T19:18:24.462Z,95.28
2022-09-21T19:21:14.900Z,95.27
2022-09-21T19:23:59.741Z,95.49
2022-09-21T19:26:33.176Z,95.35
2022-09-21T19:29:18.297Z,95.76
2022-09-21T19:31:52.224Z,95.51
2022-09-21T19:34:23.196Z,95.83
2022-09-21T19:36:56.562Z,95.60
2022-09-21T19:39:27.001Z,95.80
2022-09-21T19:42:07.317Z,95.64
2022-09-21T19:44:51.092Z,95.83
2022-09-21T19:47:29.622Z,95.96
2022-09-21T19:50:12.403Z,95.98
2022-09-21T19:52:42.303Z,96.01
2022-09-21T19:55:35.141Z,95.87
2022-09-21T19:58:24.154Z,95.94
2022-09-21T20:00:55.297Z,96.25
2022-09-21T20:03:31.529Z,96.19
2022-09-21T20:06:06.045Z,96.29
2022-09-21T20:08:41.887Z,96.55
2022-09-21T20:11:14.238Z,96.34
2022-09-21T20:13:57.165Z,96.58
2022-09-21T20:16:43.062Z,96.37
2022-09-21T20:19:28.406Z,96.62
2022-09-21T20:22:04.267Z,96.90
2022-09-21T20:24:44.329Z,96.88
2022-09-21T20:27:22.588Z,97.10
2022-09-21T20:29:51.350Z,97.11
2022-09-21T20:32:21.270Z,97.18
2022-09-21T20:34:50.032Z,97.00
2022-09-21T20:37:18.733Z,97.31
2022-09-21T20:39:47.641Z,97.61
2022-09-21T20:42:20.435Z,97.10
2022-09-21T20:44:49.288Z,97.47
2022-09-21T20:47:18.668Z,97.44
2022-09-21T20:49:47.677Z,97.18
2022-09-21T20:52:17.022Z,97.00
2022-09-21T20:54:49.260Z,97.49
2022-09-21T20:57:19.505Z,97.17
2022-09-21T20:59:48.490Z,97.32
2022-09-21T21:02:17.190Z,97.43
2022-09-21T21:04:45.848Z,97.33
2022-09-21T21:07:14.420Z,97.17
2022-09-21T21:09:43.377Z,97.62
2022-09-21T21:12:12.579Z,97.34
2022-09-21T21:14:47.087Z,97.55
2022-09-21T21:17:16.128Z,97.55
2022-09-21T21:19:45.222Z,97.57
2022-09-21T21:22:14.167Z,97.42
2022-09-21T21:24:43.620Z,97.19
2022-09-21T21:27:15.983Z,97.43
2022-09-21T21:29:46.369Z,97.35
2022-09-21T21:32:16.182Z,97.64
2022-09-21T21:34:45.419Z,97.77
2022-09-21T21:37:15.872Z,97.76
2022-09-21T21:39:45.044Z,97.94
2022-09-21T21:42:13.776Z,97.87
2022-09-21T21:44:42.780Z,97.75
2022-09-21T21:47:37.707Z,97.72
2022-09-21T21:50:00.914Z,97.90
2022-09-21T21:52:29.852Z,97.50
2022-09-21T21:54:58.461Z,97.71
2022-09-21T21:57:27.160Z,97.25
2022-09-21T21:59:55.869Z,97.30
2022-09-21T22:02:25.439Z,97.74
2022-09-21T22:04:54.251Z,97.54
2022-09-21T22:07:23.056Z,97.36
2022-09-21T22:09:51.808Z,97.66
2022-09-21T22:12:21.467Z,97.84
2022-09-21T22:14:50.209Z,97.75
2022-09-21T22:17:18.842Z,97.79
2022-09-21T22:19:47.637Z,97.59
2022-09-21T22:22:16.487Z,97.30
2022-09-21T22:24:48.426Z,97.64
2022-09-21T22:27:17.309Z,97.86
2022-09-21T22:29:46.272Z,97.38
2022-09-21T22:32:15.141Z,97.23
2022-09-21T22:34:44.325Z,97.29
2022-09-21T22:37:13.038Z,97.21
2022-09-21T22:39:42.720Z,96.96
2022-09-21T22:42:12.096Z,97.27
2022-09-21T22:44:40.871Z,97.09
2022-09-21T22:47:09.588Z,97.12
2022-09-21T22:49:38.396Z,97.08
2022-09-21T22:52:07.329Z,97.07
2022-09-21T22:54:36.117Z,96.99
2022-09-21T22:57:05.856Z,97.02
2022-09-21T22:59:34.522Z,97.04
2022-09-21T23:02:03.321Z,96.78
2022-09-21T23:04:32.114Z,96.89
2022-09-21T23:07:00.808Z,96.89
2022-09-21T23:09:29.676Z,96.83
2022-09-21T23:11:59.037Z,96.89
2022-09-21T23:14:27.704Z,96.97
2022-09-21T23:16:56.568Z,97.14
2022-09-21T23:19:25.573Z,97.03
2022-09-21T23:21:54.433Z,96.69
2022-09-21T23:24:23.570Z,96.77
2022-09-21T23:26:52.338Z,96.92
2022-09-21T23:29:21.192Z,96.89
2022-09-21T23:31:49.896Z,97.05
2022-09-21T23:34:18.629Z,96.97
2022-09-21T23:36:47.404Z,96.83
2022-09-21T23:39:16.305Z,96.89
2022-09-21T23:41:45.306Z,96.81
2022-09-21T23:44:14.345Z,96.93
2022-09-21T23:46:43.615Z,97.14
2022-09-21T23:49:13.811Z,96.83
2022-09-21T23:51:45.031Z,96.86
2022-09-21T23:54:14.601Z,96.67
2022-09-21T23:56:43.777Z,96.90
2022-09-21T23:59:12.515Z,96.96
